Klawock Airport
PAKW : now visible

Airfield :











YOU CAN JOIN US ON...

 
LOGIN :

Register | Disclaimer

   EN    FR    IT 

 









Legend :    VFR   Marginal VFR   IFR   Intensive IFR   Very Intensive IFR
Visi :
Ceiling :
>= 8 km
>= 3000ft
5 to 8 km
1000 to 3000 ft
1500m to 5 km
500 to 1000 ft
800 to 1500m
200 to 500 ft
< 800m
< 200 ft
Symbols :   Thunderstorms  Fog  Heavy snow  Heavy precipitations  Wind > 20 kt






- Airport Elevation : 80 ft
- IATA code : AKW


PAKW - Klawock

CURRENT METAR :
  • 141253Z AUTO 04004KT 10SM CLR 01/00 A3001 RMK SLP165 I1000 T00110000 TSNO VIA AUTODIAL

EXPIRED METARs :
  • 141153Z AUTO 04006KT 10SM CLR 01/00 A3002 RMK SLP166 70026 T00110000 10022 20006 51003 TSNO VIA AUTODIAL
  • 141053Z AUTO 03004KT 10SM CLR 01/M01 A3002 RMK SLP166 T00061006 TSNO VIA AUTODIAL

TAF PAKW
Valid from the 14 at 12:00 until the 15 at 12:00 UTC


141125Z 1412/1512 05004KT P6SM SCT005 SCT035
TEMPO 1414/1418 3SM BR BKN005
FM141900 VRB03KT P6SM SCT040
FM150800 VRB03KT P6SM VCFG FEW005 SCT040 AMD LTD TO CLD VIS AND WIND



MET'MAP, your aeronautical weather chart ! - Copyright ORBIFLY December 2007 - Disclaimer

ORBIFLY MET'MAP TEAM :

Programming & Development : Alexandra Zaïnal
Concept & original design : Baudouin d'Aumeries
Assistance for programming : Marc-Olivier Méhu
Technical & hardware support : Manuel Goepfert

Contact : metmap@orbifly.com




SOURCES & CREDITS :

   NOAA       Earth
Advisory